sensor_id;sensor_type;location;lat;lon;timestamp;P1;durP1;ratioP1;P2;durP2;ratioP2
77453;SDS011;66538;53.150;18.160;2024-01-15T00:01:36;9.70;;;4.90;;
77453;SDS011;66538;53.150;18.160;2024-01-15T00:04:03;9.30;;;4.40;;
77453;SDS011;66538;53.150;18.160;2024-01-15T00:06:30;8.60;;;4.80;;
77453;SDS011;66538;53.150;18.160;2024-01-15T00:08:59;8.60;;;4.80;;
77453;SDS011;66538;53.150;18.160;2024-01-15T00:11:26;7.50;;;4.20;;
77453;SDS011;66538;53.150;18.160;2024-01-15T00:13:52;9.30;;;4.90;;
77453;SDS011;66538;53.150;18.160;2024-01-15T00:16:19;10.00;;;5.70;;
77453;SDS011;66538;53.150;18.160;2024-01-15T00:18:46;10.20;;;5.50;;
77453;SDS011;66538;53.150;18.160;2024-01-15T00:21:12;7.50;;;3.60;;
77453;SDS011;66538;53.150;18.160;2024-01-15T00:23:42;8.50;;;4.60;;
77453;SDS011;66538;53.150;18.160;2024-01-15T00:26:11;10.10;;;5.60;;
77453;SDS011;66538;53.150;18.160;2024-01-15T00:28:37;10.80;;;6.20;;
77453;SDS011;66538;53.150;18.160;2024-01-15T00:31:05;8.70;;;4.60;;
77453;SDS011;66538;53.150;18.160;2024-01-15T00:33:32;8.30;;;4.00;;
77453;SDS011;66538;53.150;18.160;2024-01-15T00:35:58;10.40;;;5.20;;
77453;SDS011;66538;53.150;18.160;2024-01-15T00:38:25;9.60;;;4.50;;
77453;SDS011;66538;53.150;18.160;2024-01-15T00:40:52;10.30;;;5.00;;
77453;SDS011;66538;53.150;18.160;2024-01-15T00:43:18;11.70;;;6.00;;
77453;SDS011;66538;53.150;18.160;2024-01-15T00:45:45;10.80;;;5.70;;
77453;SDS011;66538;53.150;18.160;2024-01-15T00:48:12;10.20;;;5.60;;
77453;SDS011;66538;53.150;18.160;2024-01-15T00:50:39;8.50;;;4.00;;
77453;SDS011;66538;53.150;18.160;2024-01-15T00:53:05;13.00;;;6.50;;
77453;SDS011;66538;53.150;18.160;2024-01-15T00:55:33;9.60;;;4.90;;
77453;SDS011;66538;53.150;18.160;2024-01-15T00:58:00;11.30;;;5.70;;
77453;SDS011;66538;53.150;18.160;2024-01-15T01:00:26;9.10;;;4.60;;
77453;SDS011;66538;53.150;18.160;2024-01-15T01:02:53;9.50;;;5.00;;
77453;SDS011;66538;53.150;18.160;2024-01-15T01:05:20;10.20;;;5.20;;
77453;SDS011;66538;53.150;18.160;2024-01-15T01:07:46;6.10;;;2.90;;
77453;SDS011;66538;53.150;18.160;2024-01-15T01:10:13;10.90;;;5.50;;
77453;SDS011;66538;53.150;18.160;2024-01-15T01:12:40;11.60;;;6.50;;
77453;SDS011;66538;53.150;18.160;2024-01-15T01:15:06;8.60;;;4.40;;
77453;SDS011;66538;53.150;18.160;2024-01-15T01:17:33;12.60;;;5.80;;
77453;SDS011;66538;53.150;18.160;2024-01-15T01:19:59;10.40;;;5.10;;
77453;SDS011;66538;53.150;18.160;2024-01-15T01:22:26;9.80;;;5.00;;
77453;SDS011;66538;53.150;18.160;2024-01-15T01:24:53;7.90;;;4.00;;
77453;SDS011;66538;53.150;18.160;2024-01-15T01:27:19;11.30;;;5.90;;
77453;SDS011;66538;53.150;18.160;2024-01-15T01:29:46;11.70;;;6.20;;
77453;SDS011;66538;53.150;18.160;2024-01-15T01:32:12;10.20;;;4.60;;
77453;SDS011;66538;53.150;18.160;2024-01-15T01:34:39;7.90;;;3.80;;
77453;SDS011;66538;53.150;18.160;2024-01-15T01:39:35;9.60;;;5.20;;
77453;SDS011;66538;53.150;18.160;2024-01-15T01:42:02;7.10;;;3.40;;
77453;SDS011;66538;53.150;18.160;2024-01-15T01:44:28;7.90;;;4.20;;
77453;SDS011;66538;53.150;18.160;2024-01-15T01:46:55;8.90;;;4.50;;
77453;SDS011;66538;53.150;18.160;2024-01-15T01:49:23;9.80;;;5.10;;
77453;SDS011;66538;53.150;18.160;2024-01-15T01:51:51;7.40;;;4.30;;
77453;SDS011;66538;53.150;18.160;2024-01-15T01:54:18;7.60;;;4.10;;
77453;SDS011;66538;53.150;18.160;2024-01-15T01:56:47;7.80;;;4.30;;
77453;SDS011;66538;53.150;18.160;2024-01-15T01:59:15;10.90;;;5.30;;
77453;SDS011;66538;53.150;18.160;2024-01-15T02:01:42;7.30;;;3.90;;
77453;SDS011;66538;53.150;18.160;2024-01-15T02:04:11;9.70;;;5.00;;
77453;SDS011;66538;53.150;18.160;2024-01-15T02:06:38;8.20;;;4.00;;
77453;SDS011;66538;53.150;18.160;2024-01-15T02:09:04;7.20;;;3.80;;
77453;SDS011;66538;53.150;18.160;2024-01-15T02:11:34;13.60;;;5.90;;
77453;SDS011;66538;53.150;18.160;2024-01-15T02:14:01;6.90;;;3.60;;
77453;SDS011;66538;53.150;18.160;2024-01-15T02:16:28;9.80;;;5.50;;
77453;SDS011;66538;53.150;18.160;2024-01-15T02:18:54;7.50;;;4.30;;
77453;SDS011;66538;53.150;18.160;2024-01-15T02:21:21;6.50;;;3.00;;
77453;SDS011;66538;53.150;18.160;2024-01-15T02:23:47;6.90;;;3.30;;
77453;SDS011;66538;53.150;18.160;2024-01-15T02:26:14;7.80;;;4.60;;
77453;SDS011;66538;53.150;18.160;2024-01-15T02:28:41;10.50;;;5.60;;
77453;SDS011;66538;53.150;18.160;2024-01-15T02:31:08;7.40;;;3.80;;
77453;SDS011;66538;53.150;18.160;2024-01-15T02:33:34;11.00;;;5.90;;
77453;SDS011;66538;53.150;18.160;2024-01-15T02:36:01;7.70;;;3.70;;
77453;SDS011;66538;53.150;18.160;2024-01-15T02:38:28;6.90;;;3.70;;
77453;SDS011;66538;53.150;18.160;2024-01-15T02:40:55;8.20;;;3.90;;
77453;SDS011;66538;53.150;18.160;2024-01-15T02:43:21;7.20;;;3.90;;
77453;SDS011;66538;53.150;18.160;2024-01-15T02:45:48;8.40;;;4.20;;
77453;SDS011;66538;53.150;18.160;2024-01-15T02:48:14;8.20;;;4.40;;
77453;SDS011;66538;53.150;18.160;2024-01-15T02:50:41;8.80;;;4.50;;
77453;SDS011;66538;53.150;18.160;2024-01-15T02:53:08;7.30;;;3.70;;
77453;SDS011;66538;53.150;18.160;2024-01-15T02:55:34;6.80;;;3.90;;
77453;SDS011;66538;53.150;18.160;2024-01-15T02:58:01;13.40;;;5.40;;
77453;SDS011;66538;53.150;18.160;2024-01-15T03:00:28;6.90;;;3.40;;
77453;SDS011;66538;53.150;18.160;2024-01-15T03:02:54;8.80;;;5.20;;
77453;SDS011;66538;53.150;18.160;2024-01-15T03:05:21;8.30;;;3.90;;
77453;SDS011;66538;53.150;18.160;2024-01-15T03:07:47;9.60;;;6.10;;
77453;SDS011;66538;53.150;18.160;2024-01-15T03:10:14;13.90;;;6.90;;
77453;SDS011;66538;53.150;18.160;2024-01-15T03:12:41;11.20;;;5.80;;
77453;SDS011;66538;53.150;18.160;2024-01-15T03:15:07;7.20;;;3.20;;
77453;SDS011;66538;53.150;18.160;2024-01-15T03:17:34;9.80;;;4.70;;
77453;SDS011;66538;53.150;18.160;2024-01-15T03:20:01;6.70;;;2.90;;
77453;SDS011;66538;53.150;18.160;2024-01-15T03:22:27;11.40;;;5.20;;
77453;SDS011;66538;53.150;18.160;2024-01-15T03:24:54;25.10;;;11.40;;
77453;SDS011;66538;53.150;18.160;2024-01-15T03:27:21;18.90;;;7.20;;
77453;SDS011;66538;53.150;18.160;2024-01-15T03:29:47;13.30;;;6.20;;
77453;SDS011;66538;53.150;18.160;2024-01-15T03:32:14;16.40;;;7.60;;
77453;SDS011;66538;53.150;18.160;2024-01-15T03:34:42;18.10;;;8.80;;
77453;SDS011;66538;53.150;18.160;2024-01-15T03:37:09;16.50;;;8.10;;
77453;SDS011;66538;53.150;18.160;2024-01-15T03:39:35;11.90;;;5.70;;
77453;SDS011;66538;53.150;18.160;2024-01-15T03:42:02;14.40;;;7.00;;
77453;SDS011;66538;53.150;18.160;2024-01-15T03:44:29;12.20;;;6.10;;
77453;SDS011;66538;53.150;18.160;2024-01-15T03:46:55;10.20;;;4.90;;
77453;SDS011;66538;53.150;18.160;2024-01-15T03:49:22;11.70;;;6.20;;
77453;SDS011;66538;53.150;18.160;2024-01-15T03:51:48;11.40;;;6.00;;
77453;SDS011;66538;53.150;18.160;2024-01-15T03:54:15;13.60;;;7.30;;
77453;SDS011;66538;53.150;18.160;2024-01-15T03:56:42;10.80;;;5.10;;
77453;SDS011;66538;53.150;18.160;2024-01-15T03:59:08;10.30;;;4.60;;
77453;SDS011;66538;53.150;18.160;2024-01-15T04:01:35;14.60;;;6.60;;
77453;SDS011;66538;53.150;18.160;2024-01-15T04:04:01;11.30;;;5.90;;
77453;SDS011;66538;53.150;18.160;2024-01-15T04:06:28;14.60;;;7.40;;
77453;SDS011;66538;53.150;18.160;2024-01-15T04:08:54;17.00;;;8.30;;
77453;SDS011;66538;53.150;18.160;2024-01-15T04:11:21;18.10;;;7.70;;
77453;SDS011;66538;53.150;18.160;2024-01-15T04:13:48;13.60;;;6.50;;
77453;SDS011;66538;53.150;18.160;2024-01-15T04:16:15;16.80;;;8.00;;
77453;SDS011;66538;53.150;18.160;2024-01-15T04:18:41;14.20;;;7.10;;
77453;SDS011;66538;53.150;18.160;2024-01-15T04:21:08;13.00;;;6.30;;
77453;SDS011;66538;53.150;18.160;2024-01-15T04:23:35;16.00;;;8.80;;
77453;SDS011;66538;53.150;18.160;2024-01-15T04:26:01;16.10;;;8.50;;
77453;SDS011;66538;53.150;18.160;2024-01-15T04:28:28;11.50;;;5.70;;
77453;SDS011;66538;53.150;18.160;2024-01-15T04:30:54;12.50;;;7.20;;
77453;SDS011;66538;53.150;18.160;2024-01-15T04:33:21;11.30;;;5.40;;
77453;SDS011;66538;53.150;18.160;2024-01-15T04:35:48;10.10;;;5.20;;
77453;SDS011;66538;53.150;18.160;2024-01-15T04:38:15;9.20;;;4.10;;
77453;SDS011;66538;53.150;18.160;2024-01-15T04:40:42;8.50;;;3.40;;
77453;SDS011;66538;53.150;18.160;2024-01-15T04:43:09;7.00;;;2.50;;
77453;SDS011;66538;53.150;18.160;2024-01-15T04:45:35;6.90;;;2.70;;
77453;SDS011;66538;53.150;18.160;2024-01-15T04:48:02;7.20;;;2.90;;
77453;SDS011;66538;53.150;18.160;2024-01-15T04:50:29;9.10;;;4.70;;
77453;SDS011;66538;53.150;18.160;2024-01-15T04:52:56;6.70;;;3.30;;
77453;SDS011;66538;53.150;18.160;2024-01-15T04:55:22;6.60;;;3.20;;
77453;SDS011;66538;53.150;18.160;2024-01-15T04:57:49;6.40;;;2.70;;
77453;SDS011;66538;53.150;18.160;2024-01-15T05:00:15;7.00;;;3.70;;
77453;SDS011;66538;53.150;18.160;2024-01-15T05:02:42;10.70;;;5.00;;
77453;SDS011;66538;53.150;18.160;2024-01-15T05:05:08;7.80;;;4.40;;
77453;SDS011;66538;53.150;18.160;2024-01-15T05:07:35;8.10;;;3.80;;
77453;SDS011;66538;53.150;18.160;2024-01-15T05:10:02;7.70;;;3.40;;
77453;SDS011;66538;53.150;18.160;2024-01-15T05:12:29;14.70;;;7.40;;
77453;SDS011;66538;53.150;18.160;2024-01-15T05:14:55;5.00;;;2.10;;
77453;SDS011;66538;53.150;18.160;2024-01-15T05:17:22;6.70;;;2.50;;
77453;SDS011;66538;53.150;18.160;2024-01-15T05:19:48;14.90;;;5.00;;
77453;SDS011;66538;53.150;18.160;2024-01-15T05:22:15;6.30;;;3.00;;
77453;SDS011;66538;53.150;18.160;2024-01-15T05:24:42;5.90;;;2.40;;
77453;SDS011;66538;53.150;18.160;2024-01-15T05:27:09;5.20;;;2.10;;
77453;SDS011;66538;53.150;18.160;2024-01-15T05:29:35;5.70;;;2.70;;
77453;SDS011;66538;53.150;18.160;2024-01-15T05:32:02;5.30;;;2.00;;
77453;SDS011;66538;53.150;18.160;2024-01-15T05:34:28;10.40;;;3.00;;
77453;SDS011;66538;53.150;18.160;2024-01-15T05:36:55;6.50;;;2.80;;
77453;SDS011;66538;53.150;18.160;2024-01-15T05:39:22;7.50;;;2.60;;
77453;SDS011;66538;53.150;18.160;2024-01-15T05:41:48;6.70;;;2.20;;
77453;SDS011;66538;53.150;18.160;2024-01-15T05:44:15;5.80;;;2.00;;
77453;SDS011;66538;53.150;18.160;2024-01-15T05:46:41;6.60;;;2.20;;
77453;SDS011;66538;53.150;18.160;2024-01-15T05:49:08;6.80;;;2.00;;
77453;SDS011;66538;53.150;18.160;2024-01-15T05:51:34;3.30;;;1.00;;
77453;SDS011;66538;53.150;18.160;2024-01-15T05:54:02;6.20;;;2.30;;
77453;SDS011;66538;53.150;18.160;2024-01-15T05:56:28;8.20;;;1.70;;
77453;SDS011;66538;53.150;18.160;2024-01-15T05:58:55;4.30;;;1.40;;
77453;SDS011;66538;53.150;18.160;2024-01-15T06:01:21;6.50;;;1.60;;
77453;SDS011;66538;53.150;18.160;2024-01-15T06:03:48;4.90;;;1.40;;
77453;SDS011;66538;53.150;18.160;2024-01-15T06:06:14;5.70;;;1.80;;
77453;SDS011;66538;53.150;18.160;2024-01-15T06:08:41;7.30;;;1.90;;
77453;SDS011;66538;53.150;18.160;2024-01-15T06:11:07;5.30;;;1.50;;
77453;SDS011;66538;53.150;18.160;2024-01-15T06:13:34;5.00;;;2.00;;
77453;SDS011;66538;53.150;18.160;2024-01-15T06:16:01;6.60;;;1.80;;
77453;SDS011;66538;53.150;18.160;2024-01-15T06:18:27;4.30;;;2.20;;
77453;SDS011;66538;53.150;18.160;2024-01-15T06:20:54;7.90;;;2.30;;
77453;SDS011;66538;53.150;18.160;2024-01-15T06:23:20;6.30;;;2.30;;
77453;SDS011;66538;53.150;18.160;2024-01-15T06:25:47;6.10;;;2.60;;
77453;SDS011;66538;53.150;18.160;2024-01-15T06:28:14;4.70;;;1.50;;
77453;SDS011;66538;53.150;18.160;2024-01-15T06:30:40;4.80;;;1.60;;
77453;SDS011;66538;53.150;18.160;2024-01-15T06:33:07;6.10;;;2.00;;
77453;SDS011;66538;53.150;18.160;2024-01-15T06:35:34;7.50;;;3.00;;
77453;SDS011;66538;53.150;18.160;2024-01-15T06:38:00;8.40;;;3.30;;
77453;SDS011;66538;53.150;18.160;2024-01-15T06:40:27;7.40;;;3.70;;
77453;SDS011;66538;53.150;18.160;2024-01-15T06:42:53;4.70;;;2.60;;
77453;SDS011;66538;53.150;18.160;2024-01-15T06:45:20;7.10;;;3.40;;
77453;SDS011;66538;53.150;18.160;2024-01-15T06:47:47;7.20;;;2.90;;
77453;SDS011;66538;53.150;18.160;2024-01-15T06:50:13;5.60;;;2.10;;
77453;SDS011;66538;53.150;18.160;2024-01-15T06:52:40;6.50;;;3.00;;
77453;SDS011;66538;53.150;18.160;2024-01-15T06:55:06;8.10;;;2.80;;
77453;SDS011;66538;53.150;18.160;2024-01-15T06:57:33;5.70;;;2.50;;
77453;SDS011;66538;53.150;18.160;2024-01-15T07:00:00;5.30;;;2.60;;
77453;SDS011;66538;53.150;18.160;2024-01-15T07:02:27;10.50;;;4.20;;
77453;SDS011;66538;53.150;18.160;2024-01-15T07:04:54;16.10;;;6.20;;
77453;SDS011;66538;53.150;18.160;2024-01-15T07:07:20;7.50;;;3.60;;
77453;SDS011;66538;53.150;18.160;2024-01-15T07:09:47;15.60;;;5.60;;
77453;SDS011;66538;53.150;18.160;2024-01-15T07:12:13;13.10;;;5.50;;
77453;SDS011;66538;53.150;18.160;2024-01-15T07:14:40;12.20;;;4.90;;
77453;SDS011;66538;53.150;18.160;2024-01-15T07:17:06;12.50;;;5.50;;
77453;SDS011;66538;53.150;18.160;2024-01-15T07:19:33;12.20;;;5.10;;
77453;SDS011;66538;53.150;18.160;2024-01-15T07:22:00;11.60;;;4.40;;
77453;SDS011;66538;53.150;18.160;2024-01-15T07:24:26;10.60;;;4.60;;
77453;SDS011;66538;53.150;18.160;2024-01-15T07:26:53;8.00;;;3.70;;
77453;SDS011;66538;53.150;18.160;2024-01-15T07:29:19;7.90;;;3.00;;
77453;SDS011;66538;53.150;18.160;2024-01-15T07:31:49;9.70;;;2.70;;
77453;SDS011;66538;53.150;18.160;2024-01-15T07:34:17;9.50;;;4.10;;
77453;SDS011;66538;53.150;18.160;2024-01-15T07:36:44;10.10;;;5.60;;
77453;SDS011;66538;53.150;18.160;2024-01-15T07:39:11;8.80;;;4.30;;
77453;SDS011;66538;53.150;18.160;2024-01-15T07:41:38;10.10;;;3.90;;
77453;SDS011;66538;53.150;18.160;2024-01-15T07:44:06;9.10;;;4.30;;
77453;SDS011;66538;53.150;18.160;2024-01-15T07:46:33;13.60;;;4.90;;
77453;SDS011;66538;53.150;18.160;2024-01-15T07:48:59;12.10;;;4.20;;
77453;SDS011;66538;53.150;18.160;2024-01-15T07:51:26;7.60;;;3.50;;
77453;SDS011;66538;53.150;18.160;2024-01-15T07:53:53;8.00;;;3.60;;
77453;SDS011;66538;53.150;18.160;2024-01-15T07:56:21;7.90;;;3.40;;
77453;SDS011;66538;53.150;18.160;2024-01-15T07:58:48;8.90;;;3.60;;
77453;SDS011;66538;53.150;18.160;2024-01-15T08:01:15;8.70;;;3.50;;
77453;SDS011;66538;53.150;18.160;2024-01-15T08:03:42;11.10;;;3.10;;
77453;SDS011;66538;53.150;18.160;2024-01-15T08:06:08;7.90;;;3.00;;
77453;SDS011;66538;53.150;18.160;2024-01-15T08:08:38;13.50;;;4.40;;
77453;SDS011;66538;53.150;18.160;2024-01-15T08:13:32;8.30;;;3.30;;
77453;SDS011;66538;53.150;18.160;2024-01-15T08:15:58;6.30;;;2.20;;
77453;SDS011;66538;53.150;18.160;2024-01-15T08:18:25;8.10;;;3.90;;
77453;SDS011;66538;53.150;18.160;2024-01-15T08:20:51;6.70;;;2.50;;
77453;SDS011;66538;53.150;18.160;2024-01-15T08:23:18;9.00;;;3.00;;
77453;SDS011;66538;53.150;18.160;2024-01-15T08:25:46;11.10;;;4.10;;
77453;SDS011;66538;53.150;18.160;2024-01-15T08:28:13;7.40;;;3.20;;
77453;SDS011;66538;53.150;18.160;2024-01-15T08:30:39;8.90;;;4.50;;
77453;SDS011;66538;53.150;18.160;2024-01-15T08:33:06;6.60;;;2.90;;
77453;SDS011;66538;53.150;18.160;2024-01-15T08:35:32;8.70;;;3.10;;
77453;SDS011;66538;53.150;18.160;2024-01-15T08:37:59;10.20;;;3.60;;
77453;SDS011;66538;53.150;18.160;2024-01-15T08:40:25;12.20;;;3.50;;
77453;SDS011;66538;53.150;18.160;2024-01-15T08:42:52;8.90;;;3.40;;
77453;SDS011;66538;53.150;18.160;2024-01-15T08:45:19;9.70;;;3.10;;
77453;SDS011;66538;53.150;18.160;2024-01-15T08:47:46;9.00;;;3.10;;
77453;SDS011;66538;53.150;18.160;2024-01-15T08:50:13;8.20;;;2.80;;
77453;SDS011;66538;53.150;18.160;2024-01-15T08:52:39;7.40;;;3.50;;
77453;SDS011;66538;53.150;18.160;2024-01-15T08:55:06;8.00;;;3.20;;
77453;SDS011;66538;53.150;18.160;2024-01-15T08:57:33;6.30;;;3.10;;
77453;SDS011;66538;53.150;18.160;2024-01-15T09:00:00;9.20;;;4.20;;
77453;SDS011;66538;53.150;18.160;2024-01-15T09:02:27;8.30;;;3.80;;
77453;SDS011;66538;53.150;18.160;2024-01-15T09:04:54;7.50;;;3.90;;
77453;SDS011;66538;53.150;18.160;2024-01-15T09:07:20;7.60;;;3.70;;
77453;SDS011;66538;53.150;18.160;2024-01-15T09:09:47;6.50;;;2.90;;
77453;SDS011;66538;53.150;18.160;2024-01-15T09:12:14;8.00;;;3.00;;
77453;SDS011;66538;53.150;18.160;2024-01-15T09:14:41;7.70;;;3.00;;
77453;SDS011;66538;53.150;18.160;2024-01-15T09:17:08;11.60;;;5.00;;
77453;SDS011;66538;53.150;18.160;2024-01-15T09:19:35;8.40;;;2.90;;
77453;SDS011;66538;53.150;18.160;2024-01-15T09:22:01;7.80;;;3.10;;
77453;SDS011;66538;53.150;18.160;2024-01-15T09:24:28;7.90;;;2.70;;
77453;SDS011;66538;53.150;18.160;2024-01-15T09:26:55;6.80;;;2.90;;
77453;SDS011;66538;53.150;18.160;2024-01-15T09:29:21;8.80;;;3.80;;
77453;SDS011;66538;53.150;18.160;2024-01-15T09:31:50;6.20;;;2.90;;
77453;SDS011;66538;53.150;18.160;2024-01-15T09:34:17;5.80;;;2.40;;
77453;SDS011;66538;53.150;18.160;2024-01-15T09:36:44;9.80;;;3.60;;
77453;SDS011;66538;53.150;18.160;2024-01-15T09:39:10;10.40;;;4.30;;
77453;SDS011;66538;53.150;18.160;2024-01-15T09:41:37;10.80;;;4.80;;
77453;SDS011;66538;53.150;18.160;2024-01-15T09:44:04;14.30;;;6.30;;
77453;SDS011;66538;53.150;18.160;2024-01-15T09:46:31;11.70;;;5.80;;
77453;SDS011;66538;53.150;18.160;2024-01-15T09:48:58;9.60;;;4.30;;
77453;SDS011;66538;53.150;18.160;2024-01-15T09:51:25;7.30;;;3.40;;
77453;SDS011;66538;53.150;18.160;2024-01-15T09:53:52;8.60;;;3.60;;
77453;SDS011;66538;53.150;18.160;2024-01-15T09:56:21;9.90;;;4.40;;
77453;SDS011;66538;53.150;18.160;2024-01-15T09:58:47;15.60;;;5.80;;
77453;SDS011;66538;53.150;18.160;2024-01-15T10:01:15;9.70;;;4.00;;
77453;SDS011;66538;53.150;18.160;2024-01-15T10:03:43;6.50;;;2.40;;
77453;SDS011;66538;53.150;18.160;2024-01-15T10:06:10;7.50;;;3.10;;
77453;SDS011;66538;53.150;18.160;2024-01-15T10:08:40;8.80;;;3.40;;
77453;SDS011;66538;53.150;18.160;2024-01-15T10:11:07;8.90;;;3.20;;
77453;SDS011;66538;53.150;18.160;2024-01-15T10:13:33;7.30;;;2.70;;
77453;SDS011;66538;53.150;18.160;2024-01-15T10:16:00;4.90;;;2.00;;
77453;SDS011;66538;53.150;18.160;2024-01-15T10:18:29;5.40;;;2.70;;
77453;SDS011;66538;53.150;18.160;2024-01-15T10:20:56;7.70;;;3.50;;
77453;SDS011;66538;53.150;18.160;2024-01-15T10:23:26;5.70;;;2.50;;
77453;SDS011;66538;53.150;18.160;2024-01-15T10:25:53;9.00;;;3.60;;
77453;SDS011;66538;53.150;18.160;2024-01-15T10:28:19;7.70;;;2.70;;
77453;SDS011;66538;53.150;18.160;2024-01-15T10:30:47;5.30;;;2.10;;
77453;SDS011;66538;53.150;18.160;2024-01-15T10:33:21;7.70;;;2.70;;
77453;SDS011;66538;53.150;18.160;2024-01-15T10:35:55;5.00;;;1.90;;
77453;SDS011;66538;53.150;18.160;2024-01-15T10:38:22;4.90;;;1.40;;
77453;SDS011;66538;53.150;18.160;2024-01-15T10:40:53;4.90;;;1.90;;
77453;SDS011;66538;53.150;18.160;2024-01-15T10:43:21;3.70;;;1.50;;
77453;SDS011;66538;53.150;18.160;2024-01-15T10:45:49;3.90;;;1.50;;
77453;SDS011;66538;53.150;18.160;2024-01-15T10:48:17;3.60;;;1.20;;
77453;SDS011;66538;53.150;18.160;2024-01-15T10:50:46;4.80;;;1.90;;
77453;SDS011;66538;53.150;18.160;2024-01-15T10:53:14;8.10;;;3.00;;
77453;SDS011;66538;53.150;18.160;2024-01-15T10:55:43;5.80;;;1.80;;
77453;SDS011;66538;53.150;18.160;2024-01-15T10:58:11;7.40;;;2.20;;
77453;SDS011;66538;53.150;18.160;2024-01-15T11:00:37;3.60;;;1.40;;
77453;SDS011;66538;53.150;18.160;2024-01-15T11:03:05;6.20;;;2.70;;
77453;SDS011;66538;53.150;18.160;2024-01-15T11:05:40;5.70;;;2.80;;
77453;SDS011;66538;53.150;18.160;2024-01-15T11:08:09;5.80;;;2.30;;
77453;SDS011;66538;53.150;18.160;2024-01-15T11:10:37;6.20;;;2.70;;
77453;SDS011;66538;53.150;18.160;2024-01-15T11:13:14;7.40;;;2.90;;
77453;SDS011;66538;53.150;18.160;2024-01-15T11:16:06;5.40;;;2.10;;
77453;SDS011;66538;53.150;18.160;2024-01-15T11:23:48;4.50;;;1.50;;
77453;SDS011;66538;53.150;18.160;2024-01-15T11:26:31;4.80;;;1.80;;
77453;SDS011;66538;53.150;18.160;2024-01-15T11:29:04;4.10;;;1.30;;
77453;SDS011;66538;53.150;18.160;2024-01-15T11:34:08;3.50;;;1.40;;
77453;SDS011;66538;53.150;18.160;2024-01-15T11:41:57;3.70;;;1.50;;
77453;SDS011;66538;53.150;18.160;2024-01-15T11:44:25;4.30;;;1.30;;
77453;SDS011;66538;53.150;18.160;2024-01-15T11:47:02;4.00;;;1.80;;
77453;SDS011;66538;53.150;18.160;2024-01-15T11:52:12;4.40;;;2.00;;
77453;SDS011;66538;53.150;18.160;2024-01-15T11:55:00;7.00;;;2.40;;
77453;SDS011;66538;53.150;18.160;2024-01-15T12:00:05;7.10;;;2.10;;
77453;SDS011;66538;53.150;18.160;2024-01-15T12:02:39;3.70;;;1.40;;
77453;SDS011;66538;53.150;18.160;2024-01-15T12:05:08;4.70;;;1.40;;
77453;SDS011;66538;53.150;18.160;2024-01-15T12:07:35;4.00;;;1.40;;
77453;SDS011;66538;53.150;18.160;2024-01-15T12:10:02;4.60;;;1.30;;
77453;SDS011;66538;53.150;18.160;2024-01-15T12:12:32;4.60;;;1.40;;
77453;SDS011;66538;53.150;18.160;2024-01-15T12:15:06;4.40;;;1.50;;
77453;SDS011;66538;53.150;18.160;2024-01-15T12:17:33;4.90;;;1.20;;
77453;SDS011;66538;53.150;18.160;2024-01-15T12:20:01;3.20;;;1.10;;
77453;SDS011;66538;53.150;18.160;2024-01-15T12:22:27;4.20;;;1.30;;
77453;SDS011;66538;53.150;18.160;2024-01-15T12:24:54;3.30;;;0.80;;
77453;SDS011;66538;53.150;18.160;2024-01-15T12:27:21;2.90;;;0.80;;
77453;SDS011;66538;53.150;18.160;2024-01-15T12:29:48;2.90;;;0.90;;
77453;SDS011;66538;53.150;18.160;2024-01-15T12:32:14;2.60;;;1.00;;
77453;SDS011;66538;53.150;18.160;2024-01-15T12:34:41;5.10;;;1.10;;
77453;SDS011;66538;53.150;18.160;2024-01-15T12:37:07;7.80;;;1.40;;
77453;SDS011;66538;53.150;18.160;2024-01-15T12:39:34;4.20;;;1.60;;
77453;SDS011;66538;53.150;18.160;2024-01-15T12:42:02;10.90;;;3.40;;
77453;SDS011;66538;53.150;18.160;2024-01-15T12:44:29;4.90;;;1.80;;
77453;SDS011;66538;53.150;18.160;2024-01-15T12:46:56;3.40;;;0.90;;
77453;SDS011;66538;53.150;18.160;2024-01-15T12:49:23;5.40;;;1.30;;
77453;SDS011;66538;53.150;18.160;2024-01-15T12:51:53;4.90;;;1.40;;
77453;SDS011;66538;53.150;18.160;2024-01-15T12:54:23;6.20;;;1.50;;
77453;SDS011;66538;53.150;18.160;2024-01-15T12:56:50;6.70;;;1.50;;
77453;SDS011;66538;53.150;18.160;2024-01-15T12:59:17;4.10;;;1.40;;
77453;SDS011;66538;53.150;18.160;2024-01-15T13:01:45;5.30;;;2.00;;
77453;SDS011;66538;53.150;18.160;2024-01-15T13:04:22;3.60;;;0.90;;
77453;SDS011;66538;53.150;18.160;2024-01-15T13:06:50;3.20;;;1.30;;
77453;SDS011;66538;53.150;18.160;2024-01-15T13:09:17;5.00;;;1.30;;
77453;SDS011;66538;53.150;18.160;2024-01-15T13:11:44;4.90;;;1.20;;
77453;SDS011;66538;53.150;18.160;2024-01-15T13:14:11;4.40;;;1.10;;
77453;SDS011;66538;53.150;18.160;2024-01-15T13:16:40;3.50;;;0.90;;
77453;SDS011;66538;53.150;18.160;2024-01-15T13:19:08;2.40;;;0.80;;
77453;SDS011;66538;53.150;18.160;2024-01-15T13:21:37;5.50;;;1.00;;
77453;SDS011;66538;53.150;18.160;2024-01-15T13:24:04;4.60;;;1.00;;
77453;SDS011;66538;53.150;18.160;2024-01-15T13:26:32;5.40;;;1.30;;
77453;SDS011;66538;53.150;18.160;2024-01-15T13:29:00;2.50;;;1.00;;
77453;SDS011;66538;53.150;18.160;2024-01-15T13:31:27;3.20;;;0.60;;
77453;SDS011;66538;53.150;18.160;2024-01-15T13:33:54;3.60;;;1.10;;
77453;SDS011;66538;53.150;18.160;2024-01-15T13:36:22;4.50;;;1.20;;
77453;SDS011;66538;53.150;18.160;2024-01-15T13:38:50;6.20;;;1.90;;
77453;SDS011;66538;53.150;18.160;2024-01-15T13:41:17;4.50;;;1.10;;
77453;SDS011;66538;53.150;18.160;2024-01-15T13:43:56;5.50;;;1.20;;
77453;SDS011;66538;53.150;18.160;2024-01-15T13:46:24;7.30;;;1.70;;
77453;SDS011;66538;53.150;18.160;2024-01-15T13:48:52;5.00;;;1.00;;
77453;SDS011;66538;53.150;18.160;2024-01-15T13:51:23;8.10;;;1.60;;
77453;SDS011;66538;53.150;18.160;2024-01-15T13:53:50;4.50;;;0.90;;
77453;SDS011;66538;53.150;18.160;2024-01-15T13:56:17;6.30;;;1.30;;
77453;SDS011;66538;53.150;18.160;2024-01-15T13:58:44;3.40;;;0.90;;
77453;SDS011;66538;53.150;18.160;2024-01-15T14:01:11;5.50;;;1.70;;
77453;SDS011;66538;53.150;18.160;2024-01-15T14:03:37;5.20;;;1.00;;
77453;SDS011;66538;53.150;18.160;2024-01-15T14:06:04;4.80;;;1.70;;
77453;SDS011;66538;53.150;18.160;2024-01-15T14:08:35;4.50;;;1.20;;
77453;SDS011;66538;53.150;18.160;2024-01-15T14:11:03;5.10;;;1.20;;
77453;SDS011;66538;53.150;18.160;2024-01-15T14:13:32;6.30;;;2.10;;
77453;SDS011;66538;53.150;18.160;2024-01-15T14:15:59;5.70;;;1.50;;
77453;SDS011;66538;53.150;18.160;2024-01-15T14:18:27;4.20;;;1.20;;
77453;SDS011;66538;53.150;18.160;2024-01-15T14:20:54;2.50;;;0.90;;
77453;SDS011;66538;53.150;18.160;2024-01-15T14:23:20;4.40;;;1.10;;
77453;SDS011;66538;53.150;18.160;2024-01-15T14:25:47;3.80;;;1.00;;
77453;SDS011;66538;53.150;18.160;2024-01-15T14:28:14;4.10;;;1.10;;
77453;SDS011;66538;53.150;18.160;2024-01-15T14:30:41;2.70;;;0.90;;
77453;SDS011;66538;53.150;18.160;2024-01-15T14:33:07;4.50;;;1.10;;
77453;SDS011;66538;53.150;18.160;2024-01-15T14:35:34;4.30;;;1.20;;
77453;SDS011;66538;53.150;18.160;2024-01-15T14:38:01;5.80;;;1.80;;
77453;SDS011;66538;53.150;18.160;2024-01-15T14:40:27;2.50;;;0.90;;
77453;SDS011;66538;53.150;18.160;2024-01-15T14:42:54;3.10;;;1.10;;
77453;SDS011;66538;53.150;18.160;2024-01-15T14:45:21;2.50;;;0.80;;
77453;SDS011;66538;53.150;18.160;2024-01-15T14:47:48;3.70;;;1.30;;
77453;SDS011;66538;53.150;18.160;2024-01-15T14:50:15;6.90;;;1.60;;
77453;SDS011;66538;53.150;18.160;2024-01-15T14:52:42;4.10;;;1.40;;
77453;SDS011;66538;53.150;18.160;2024-01-15T14:55:08;6.20;;;1.30;;